Chatham Kent Airport


Codes: CYCK/XCM
Name: Chatham Kent Airport
City: Chatham-Kent
Country: Canada
Elevation: 650 ft.
Wikipedia:

Photos at Chatham Kent Airport


   Photos courtesy of SpottingLog. You can add your own sightings and photos by signing up for a free trial today.



No photos found.

Weather at Chatham Kent Airport


Time (UTC)DescriptionTempratureWindCloud coverageVisibilityPressureHumidity
17-Jun-2024 06:00Light Rain20°C4 mph, W12%9286m1015hPa79%
17-Jun-2024 09:00Light Rain19°C9 mph, S67%10000m1015hPa86%
17-Jun-2024 12:00Light Rain20°C9 mph, SW100%10000m1016hPa88%
17-Jun-2024 15:00Light Rain25°C13 mph, SW79%5623m1016hPa78%
17-Jun-2024 18:00Broken Clouds29°C16 mph, SW67%10000m1016hPa62%
17-Jun-2024 21:00Scattered Clouds30°C11 mph, SW33%10000m1016hPa59%
18-Jun-2024 00:00Light Rain26°C4 mph, S34%10000m1016hPa71%
18-Jun-2024 03:00Light Rain23°C7 mph, SW70%10000m1017hPa85%
18-Jun-2024 06:00Light Rain23°C7 mph, SW64%10000m1017hPa87%
18-Jun-2024 09:00Light Rain21°C9 mph, SW100%10000m1018hPa94%
18-Jun-2024 12:00Light Rain23°C7 mph, S100%10000m1020hPa87%
18-Jun-2024 15:00Overcast Clouds26°C11 mph, SW98%3470m1021hPa74%
18-Jun-2024 18:00Overcast Clouds28°C11 mph, SW99%8179m1020hPa68%
18-Jun-2024 21:00Overcast Clouds28°C9 mph, S100%10000m1020hPa66%
19-Jun-2024 00:00Overcast Clouds25°C7 mph, S96%10000m1020hPa80%
19-Jun-2024 03:00Light Rain24°C7 mph, SW85%10000m1021hPa79%
19-Jun-2024 06:00Overcast Clouds22°C7 mph, S91%10000m1020hPa89%
19-Jun-2024 09:00Overcast Clouds22°C7 mph, SW98%10000m1022hPa87%
19-Jun-2024 12:00Light Rain24°C4 mph, SW100%10000m1024hPa84%
19-Jun-2024 15:00Light Rain26°C7 mph, S94%4927m1024hPa74%
19-Jun-2024 18:00Overcast Clouds28°C9 mph, SW97%4433m1024hPa69%
19-Jun-2024 21:00Overcast Clouds28°C7 mph, SW100%10000m1023hPa63%
20-Jun-2024 00:00Overcast Clouds26°C7 mph, SW99%10000m1023hPa74%
20-Jun-2024 03:00Overcast Clouds25°C4 mph, SW96%10000m1024hPa75%
20-Jun-2024 06:00Overcast Clouds24°C7 mph, N96%10000m1024hPa82%
20-Jun-2024 09:00Light Rain23°C4 mph, N96%10000m1024hPa84%
20-Jun-2024 12:00Light Rain22°C9 mph, N88%10000m1026hPa87%
20-Jun-2024 15:00Light Rain26°C9 mph, N70%10000m1027hPa71%
20-Jun-2024 18:00Broken Clouds29°C4 mph, NE67%10000m1025hPa60%
20-Jun-2024 21:00Light Rain29°C2 mph, NW59%10000m1024hPa62%
21-Jun-2024 00:00Light Rain23°C11 mph, N56%10000m1025hPa78%
21-Jun-2024 03:00Broken Clouds20°C7 mph, N72%10000m1025hPa78%
21-Jun-2024 06:00Broken Clouds20°C7 mph, N83%10000m1025hPa78%
21-Jun-2024 09:00Broken Clouds20°C7 mph, NE64%10000m1024hPa87%
21-Jun-2024 12:00Scattered Clouds22°C4 mph, NE43%10000m1024hPa84%
21-Jun-2024 15:00Few Clouds25°C4 mph, E22%9475m1023hPa75%
21-Jun-2024 18:00Few Clouds27°C7 mph, SE18%5550m1022hPa68%
21-Jun-2024 21:00Light Rain27°C7 mph, S16%3374m1020hPa70%
22-Jun-2024 00:00Light Rain23°C7 mph, SE17%10000m1019hPa84%
22-Jun-2024 03:00Clear Sky22°C4 mph, S2%10000m1019hPa84%